sensor_id;sensor_type;location;lat;lon;timestamp;pressure;altitude;pressure_sealevel;temperature;humidity
43878;BME280;29815;48.184;11.268;2023-04-27T00:00:45;95603.56;;;4.72;100.00
43878;BME280;29815;48.184;11.268;2023-04-27T00:03:14;95599.84;;;4.73;100.00
43878;BME280;29815;48.184;11.268;2023-04-27T00:05:45;95603.56;;;4.72;100.00
43878;BME280;29815;48.184;11.268;2023-04-27T00:08:15;95603.56;;;4.72;100.00
43878;BME280;29815;48.184;11.268;2023-04-27T00:10:45;95596.84;;;4.70;100.00
43878;BME280;29815;48.184;11.268;2023-04-27T00:13:14;95593.59;;;4.68;100.00
43878;BME280;29815;48.184;11.268;2023-04-27T00:15:45;95594.63;;;4.67;100.00
43878;BME280;29815;48.184;11.268;2023-04-27T00:18:15;95599.75;;;4.68;100.00
43878;BME280;29815;48.184;11.268;2023-04-27T00:20:45;95587.22;;;4.69;100.00
43878;BME280;29815;48.184;11.268;2023-04-27T00:23:15;95595.00;;;4.70;100.00
43878;BME280;29815;48.184;11.268;2023-04-27T00:25:44;95591.03;;;4.73;100.00
43878;BME280;29815;48.184;11.268;2023-04-27T00:28:14;95592.44;;;4.75;100.00
43878;BME280;29815;48.184;11.268;2023-04-27T00:30:44;95591.63;;;4.75;100.00
43878;BME280;29815;48.184;11.268;2023-04-27T00:33:16;95587.91;;;4.76;100.00
43878;BME280;29815;48.184;11.268;2023-04-27T00:35:48;95577.47;;;4.74;100.00
43878;BME280;29815;48.184;11.268;2023-04-27T00:38:17;95581.78;;;4.75;100.00
43878;BME280;29815;48.184;11.268;2023-04-27T00:40:47;95587.91;;;4.76;100.00
43878;BME280;29815;48.184;11.268;2023-04-27T00:43:16;95591.41;;;4.76;100.00
43878;BME280;29815;48.184;11.268;2023-04-27T00:45:47;95588.97;;;4.75;100.00
43878;BME280;29815;48.184;11.268;2023-04-27T00:48:17;95588.16;;;4.74;100.00
43878;BME280;29815;48.184;11.268;2023-04-27T00:50:46;95586.53;;;4.73;100.00
43878;BME280;29815;48.184;11.268;2023-04-27T00:53:16;95585.72;;;4.73;100.00
43878;BME280;29815;48.184;11.268;2023-04-27T00:55:46;95593.72;;;4.73;100.00
43878;BME280;29815;48.184;11.268;2023-04-27T00:58:16;95586.75;;;4.72;100.00
43878;BME280;29815;48.184;11.268;2023-04-27T01:00:47;95586.19;;;4.70;100.00
43878;BME280;29815;48.184;11.268;2023-04-27T01:03:16;95584.31;;;4.70;100.00
43878;BME280;29815;48.184;11.268;2023-04-27T01:05:46;95584.31;;;4.70;100.00
43878;BME280;29815;48.184;11.268;2023-04-27T01:08:15;95585.13;;;4.71;100.00
43878;BME280;29815;48.184;11.268;2023-04-27T01:10:45;95583.28;;;4.71;100.00
43878;BME280;29815;48.184;11.268;2023-04-27T01:13:17;95592.31;;;4.70;100.00
43878;BME280;29815;48.184;11.268;2023-04-27T01:15:52;95589.88;;;4.69;100.00
43878;BME280;29815;48.184;11.268;2023-04-27T01:18:21;95589.31;;;4.67;100.00
43878;BME280;29815;48.184;11.268;2023-04-27T01:20:51;95585.59;;;4.68;100.00
43878;BME280;29815;48.184;11.268;2023-04-27T01:23:22;95593.00;;;4.66;100.00
43878;BME280;29815;48.184;11.268;2023-04-27T01:25:52;95596.75;;;4.65;100.00
43878;BME280;29815;48.184;11.268;2023-04-27T01:28:21;95600.91;;;4.61;100.00
43878;BME280;29815;48.184;11.268;2023-04-27T01:30:51;95596.28;;;4.56;100.00
43878;BME280;29815;48.184;11.268;2023-04-27T01:33:21;95596.97;;;4.52;100.00
43878;BME280;29815;48.184;11.268;2023-04-27T01:35:51;95598.47;;;4.48;100.00
43878;BME280;29815;48.184;11.268;2023-04-27T01:38:22;95601.00;;;4.42;100.00
43878;BME280;29815;48.184;11.268;2023-04-27T01:40:52;95595.31;;;4.39;100.00
43878;BME280;29815;48.184;11.268;2023-04-27T01:43:22;95594.75;;;4.37;100.00
43878;BME280;29815;48.184;11.268;2023-04-27T01:45:52;95592.78;;;4.32;100.00
43878;BME280;29815;48.184;11.268;2023-04-27T01:48:21;95589.16;;;4.27;100.00
43878;BME280;29815;48.184;11.268;2023-04-27T01:50:52;95596.22;;;4.21;100.00
43878;BME280;29815;48.184;11.268;2023-04-27T01:53:23;95590.75;;;4.16;100.00
43878;BME280;29815;48.184;11.268;2023-04-27T01:55:52;95596.53;;;4.13;100.00
43878;BME280;29815;48.184;11.268;2023-04-27T01:58:22;95602.56;;;4.08;100.00
43878;BME280;29815;48.184;11.268;2023-04-27T02:00:53;95606.16;;;4.02;100.00
43878;BME280;29815;48.184;11.268;2023-04-27T02:03:22;95612.16;;;3.98;100.00
43878;BME280;29815;48.184;11.268;2023-04-27T02:05:52;95606.69;;;3.93;100.00
43878;BME280;29815;48.184;11.268;2023-04-27T02:08:23;95608.63;;;3.86;100.00
43878;BME280;29815;48.184;11.268;2023-04-27T02:10:52;95610.59;;;3.79;100.00
43878;BME280;29815;48.184;11.268;2023-04-27T02:13:23;95610.06;;;3.70;100.00
43878;BME280;29815;48.184;11.268;2023-04-27T02:15:53;95610.97;;;3.64;100.00
43878;BME280;29815;48.184;11.268;2023-04-27T02:18:23;95603.44;;;3.61;100.00
43878;BME280;29815;48.184;11.268;2023-04-27T02:20:53;95611.28;;;3.56;100.00
43878;BME280;29815;48.184;11.268;2023-04-27T02:23:23;95608.72;;;3.49;100.00
43878;BME280;29815;48.184;11.268;2023-04-27T02:25:53;95615.28;;;3.47;100.00
43878;BME280;29815;48.184;11.268;2023-04-27T02:28:22;95609.59;;;3.43;100.00
43878;BME280;29815;48.184;11.268;2023-04-27T02:30:53;95609.22;;;3.39;100.00
43878;BME280;29815;48.184;11.268;2023-04-27T02:33:23;95612.56;;;3.35;100.00
43878;BME280;29815;48.184;11.268;2023-04-27T02:35:52;95615.66;;;3.32;100.00
43878;BME280;29815;48.184;11.268;2023-04-27T02:38:23;95616.09;;;3.29;100.00
43878;BME280;29815;48.184;11.268;2023-04-27T02:40:53;95611.84;;;3.28;100.00
43878;BME280;29815;48.184;11.268;2023-04-27T02:43:23;95621.69;;;3.27;100.00
43878;BME280;29815;48.184;11.268;2023-04-27T02:45:52;95618.06;;;3.22;100.00
43878;BME280;29815;48.184;11.268;2023-04-27T02:48:22;95615.47;;;3.15;100.00
43878;BME280;29815;48.184;11.268;2023-04-27T02:50:51;95625.94;;;3.10;100.00
43878;BME280;29815;48.184;11.268;2023-04-27T02:53:22;95624.97;;;3.04;100.00
43878;BME280;29815;48.184;11.268;2023-04-27T02:55:52;95623.22;;;2.98;100.00
43878;BME280;29815;48.184;11.268;2023-04-27T02:58:21;95628.97;;;2.95;100.00
43878;BME280;29815;48.184;11.268;2023-04-27T03:00:53;95625.72;;;2.93;100.00
43878;BME280;29815;48.184;11.268;2023-04-27T03:03:23;95623.06;;;2.93;100.00
43878;BME280;29815;48.184;11.268;2023-04-27T03:05:53;95625.72;;;2.93;100.00
43878;BME280;29815;48.184;11.268;2023-04-27T03:08:24;95624.91;;;2.93;100.00
43878;BME280;29815;48.184;11.268;2023-04-27T03:10:54;95628.16;;;2.95;100.00
43878;BME280;29815;48.184;11.268;2023-04-27T03:13:23;95625.28;;;2.96;100.00
43878;BME280;29815;48.184;11.268;2023-04-27T03:15:53;95631.84;;;2.94;100.00
43878;BME280;29815;48.184;11.268;2023-04-27T03:18:22;95627.19;;;2.89;100.00
43878;BME280;29815;48.184;11.268;2023-04-27T03:20:52;95625.41;;;2.83;100.00
43878;BME280;29815;48.184;11.268;2023-04-27T03:23:21;95627.47;;;2.81;100.00
43878;BME280;29815;48.184;11.268;2023-04-27T03:25:53;95630.56;;;2.78;100.00
43878;BME280;29815;48.184;11.268;2023-04-27T03:28:23;95633.53;;;2.70;100.00
43878;BME280;29815;48.184;11.268;2023-04-27T03:30:55;95648.47;;;2.64;100.00
43878;BME280;29815;48.184;11.268;2023-04-27T03:33:25;95644.63;;;2.60;100.00
43878;BME280;29815;48.184;11.268;2023-04-27T03:35:56;95641.00;;;2.55;100.00
43878;BME280;29815;48.184;11.268;2023-04-27T03:38:26;95642.03;;;2.54;100.00
43878;BME280;29815;48.184;11.268;2023-04-27T03:40:57;95632.00;;;2.56;100.00
43878;BME280;29815;48.184;11.268;2023-04-27T03:43:27;95636.66;;;2.60;100.00
43878;BME280;29815;48.184;11.268;2023-04-27T03:45:57;95633.34;;;2.65;100.00
43878;BME280;29815;48.184;11.268;2023-04-27T03:48:27;95638.22;;;2.68;100.00
43878;BME280;29815;48.184;11.268;2023-04-27T03:50:57;95629.66;;;2.66;100.00
43878;BME280;29815;48.184;11.268;2023-04-27T03:53:28;95641.31;;;2.65;100.00
43878;BME280;29815;48.184;11.268;2023-04-27T03:56:01;95646.03;;;2.63;100.00
43878;BME280;29815;48.184;11.268;2023-04-27T03:58:31;95643.59;;;2.61;100.00
43878;BME280;29815;48.184;11.268;2023-04-27T04:01:12;95650.97;;;2.59;100.00
43878;BME280;29815;48.184;11.268;2023-04-27T04:03:42;95658.56;;;2.56;100.00
43878;BME280;29815;48.184;11.268;2023-04-27T04:06:12;95659.59;;;2.55;100.00
43878;BME280;29815;48.184;11.268;2023-04-27T04:08:42;95665.72;;;2.55;100.00
43878;BME280;29815;48.184;11.268;2023-04-27T04:11:13;95668.16;;;2.57;100.00
43878;BME280;29815;48.184;11.268;2023-04-27T04:13:43;95673.47;;;2.57;100.00
43878;BME280;29815;48.184;11.268;2023-04-27T04:16:13;95668.97;;;2.57;100.00
43878;BME280;29815;48.184;11.268;2023-04-27T04:18:42;95667.13;;;2.58;100.00
43878;BME280;29815;48.184;11.268;2023-04-27T04:21:12;95674.88;;;2.59;100.00
43878;BME280;29815;48.184;11.268;2023-04-27T04:23:42;95678.13;;;2.61;100.00
43878;BME280;29815;48.184;11.268;2023-04-27T04:26:14;95686.72;;;2.63;100.00
43878;BME280;29815;48.184;11.268;2023-04-27T04:28:43;95689.75;;;2.67;100.00
43878;BME280;29815;48.184;11.268;2023-04-27T04:31:13;95692.19;;;2.68;100.00
43878;BME280;29815;48.184;11.268;2023-04-27T04:33:45;95689.53;;;2.68;100.00
43878;BME280;29815;48.184;11.268;2023-04-27T04:36:16;95681.34;;;2.70;100.00
43878;BME280;29815;48.184;11.268;2023-04-27T04:38:46;95685.16;;;2.74;100.00
43878;BME280;29815;48.184;11.268;2023-04-27T04:41:18;95686.81;;;2.75;100.00
43878;BME280;29815;48.184;11.268;2023-04-27T04:43:47;95686.97;;;2.80;100.00
43878;BME280;29815;48.184;11.268;2023-04-27T04:46:18;95686.09;;;2.86;100.00
43878;BME280;29815;48.184;11.268;2023-04-27T04:48:50;95692.63;;;2.90;100.00
43878;BME280;29815;48.184;11.268;2023-04-27T04:51:21;95692.78;;;2.95;100.00
43878;BME280;29815;48.184;11.268;2023-04-27T04:53:51;95688.66;;;2.99;100.00
43878;BME280;29815;48.184;11.268;2023-04-27T04:56:24;95698.16;;;3.07;100.00
43878;BME280;29815;48.184;11.268;2023-04-27T04:58:55;95696.06;;;3.16;100.00
43878;BME280;29815;48.184;11.268;2023-04-27T05:01:25;95694.97;;;3.23;100.00
43878;BME280;29815;48.184;11.268;2023-04-27T05:03:54;95690.34;;;3.30;100.00
43878;BME280;29815;48.184;11.268;2023-04-27T05:06:24;95685.78;;;3.37;100.00
43878;BME280;29815;48.184;11.268;2023-04-27T05:08:54;95695.94;;;3.47;100.00
43878;BME280;29815;48.184;11.268;2023-04-27T05:11:25;95694.94;;;3.60;100.00
43878;BME280;29815;48.184;11.268;2023-04-27T05:13:55;95698.94;;;3.69;100.00
43878;BME280;29815;48.184;11.268;2023-04-27T05:16:24;95699.47;;;3.78;100.00
43878;BME280;29815;48.184;11.268;2023-04-27T05:18:54;95699.13;;;3.86;100.00
43878;BME280;29815;48.184;11.268;2023-04-27T05:21:23;95693.50;;;3.94;100.00
43878;BME280;29815;48.184;11.268;2023-04-27T05:23:53;95695.88;;;4.02;100.00
43878;BME280;29815;48.184;11.268;2023-04-27T05:26:22;95695.31;;;4.12;100.00
43878;BME280;29815;48.184;11.268;2023-04-27T05:28:53;95696.03;;;4.19;100.00
43878;BME280;29815;48.184;11.268;2023-04-27T05:31:23;95705.94;;;4.30;100.00
43878;BME280;29815;48.184;11.268;2023-04-27T05:33:52;95708.84;;;4.40;100.00
43878;BME280;29815;48.184;11.268;2023-04-27T05:36:22;95716.53;;;4.48;100.00
43878;BME280;29815;48.184;11.268;2023-04-27T05:38:51;95726.66;;;4.58;100.00
43878;BME280;29815;48.184;11.268;2023-04-27T05:41:21;95719.13;;;4.66;100.00
43878;BME280;29815;48.184;11.268;2023-04-27T05:43:52;95722.28;;;4.75;100.00
43878;BME280;29815;48.184;11.268;2023-04-27T05:46:22;95716.03;;;4.81;100.00
43878;BME280;29815;48.184;11.268;2023-04-27T05:48:52;95710.38;;;4.89;100.00
43878;BME280;29815;48.184;11.268;2023-04-27T05:51:21;95714.31;;;4.98;100.00
43878;BME280;29815;48.184;11.268;2023-04-27T05:53:51;95710.25;;;5.07;100.00
43878;BME280;29815;48.184;11.268;2023-04-27T05:56:22;95711.78;;;5.15;100.00
43878;BME280;29815;48.184;11.268;2023-04-27T05:58:53;95714.66;;;5.25;100.00
43878;BME280;29815;48.184;11.268;2023-04-27T06:01:22;95703.63;;;5.33;100.00
43878;BME280;29815;48.184;11.268;2023-04-27T06:03:52;95713.16;;;5.41;100.00
43878;BME280;29815;48.184;11.268;2023-04-27T06:06:22;95710.69;;;5.51;100.00
43878;BME280;29815;48.184;11.268;2023-04-27T06:08:51;95713.81;;;5.60;100.00
43878;BME280;29815;48.184;11.268;2023-04-27T06:11:21;95710.81;;;5.68;100.00
43878;BME280;29815;48.184;11.268;2023-04-27T06:13:50;95711.97;;;5.72;100.00
43878;BME280;29815;48.184;11.268;2023-04-27T06:16:21;95717.38;;;5.77;100.00
43878;BME280;29815;48.184;11.268;2023-04-27T06:18:51;95720.50;;;5.86;100.00
43878;BME280;29815;48.184;11.268;2023-04-27T06:21:21;95718.56;;;5.93;100.00
43878;BME280;29815;48.184;11.268;2023-04-27T06:23:50;95718.19;;;6.01;100.00
43878;BME280;29815;48.184;11.268;2023-04-27T06:26:20;95716.19;;;6.08;100.00
43878;BME280;29815;48.184;11.268;2023-04-27T06:28:49;95719.06;;;6.18;100.00
43878;BME280;29815;48.184;11.268;2023-04-27T06:31:20;95721.34;;;6.26;100.00
43878;BME280;29815;48.184;11.268;2023-04-27T06:33:50;95721.53;;;6.36;100.00
43878;BME280;29815;48.184;11.268;2023-04-27T06:36:19;95719.06;;;6.47;100.00
43878;BME280;29815;48.184;11.268;2023-04-27T06:38:49;95720.53;;;6.54;100.00
43878;BME280;29815;48.184;11.268;2023-04-27T06:41:23;95720.94;;;6.63;100.00
43878;BME280;29815;48.184;11.268;2023-04-27T06:43:54;95732.41;;;6.75;100.00
43878;BME280;29815;48.184;11.268;2023-04-27T06:46:27;95726.09;;;6.81;100.00
43878;BME280;29815;48.184;11.268;2023-04-27T06:48:57;95722.19;;;6.89;100.00
43878;BME280;29815;48.184;11.268;2023-04-27T06:51:26;95722.59;;;6.97;100.00
43878;BME280;29815;48.184;11.268;2023-04-27T06:53:56;95729.19;;;7.06;100.00
43878;BME280;29815;48.184;11.268;2023-04-27T06:56:25;95725.84;;;7.16;100.00
43878;BME280;29815;48.184;11.268;2023-04-27T06:58:55;95724.13;;;7.27;100.00
43878;BME280;29815;48.184;11.268;2023-04-27T07:01:24;95728.03;;;7.36;100.00
43878;BME280;29815;48.184;11.268;2023-04-27T07:03:55;95720.69;;;7.48;100.00
43878;BME280;29815;48.184;11.268;2023-04-27T07:06:25;95734.09;;;7.65;100.00
43878;BME280;29815;48.184;11.268;2023-04-27T07:09:03;95732.00;;;7.72;100.00
43878;BME280;29815;48.184;11.268;2023-04-27T07:11:47;95738.25;;;7.77;100.00
43878;BME280;29815;48.184;11.268;2023-04-27T07:14:17;95744.75;;;7.81;100.00
43878;BME280;29815;48.184;11.268;2023-04-27T07:16:46;95739.78;;;7.90;100.00
43878;BME280;29815;48.184;11.268;2023-04-27T07:19:17;95740.13;;;7.99;100.00
43878;BME280;29815;48.184;11.268;2023-04-27T07:21:46;95741.34;;;8.08;100.00
43878;BME280;29815;48.184;11.268;2023-04-27T07:24:17;95725.94;;;8.20;100.00
43878;BME280;29815;48.184;11.268;2023-04-27T07:26:47;95732.22;;;8.31;100.00
43878;BME280;29815;48.184;11.268;2023-04-27T07:29:16;95728.31;;;8.38;100.00
43878;BME280;29815;48.184;11.268;2023-04-27T07:31:54;95725.72;;;8.48;100.00
43878;BME280;29815;48.184;11.268;2023-04-27T07:34:26;95726.16;;;8.62;100.00
43878;BME280;29815;48.184;11.268;2023-04-27T07:37:08;95731.63;;;8.72;100.00
43878;BME280;29815;48.184;11.268;2023-04-27T07:39:38;95726.84;;;8.79;100.00
43878;BME280;29815;48.184;11.268;2023-04-27T07:42:08;95731.50;;;8.89;100.00
43878;BME280;29815;48.184;11.268;2023-04-27T07:44:37;95737.25;;;8.98;100.00
43878;BME280;29815;48.184;11.268;2023-04-27T07:47:08;95724.38;;;9.05;100.00
43878;BME280;29815;48.184;11.268;2023-04-27T07:49:39;95730.91;;;9.14;100.00
43878;BME280;29815;48.184;11.268;2023-04-27T07:52:08;95728.84;;;9.21;100.00
43878;BME280;29815;48.184;11.268;2023-04-27T07:54:38;95725.69;;;9.29;100.00
43878;BME280;29815;48.184;11.268;2023-04-27T07:57:08;95731.13;;;9.39;100.00
43878;BME280;29815;48.184;11.268;2023-04-27T07:59:38;95730.66;;;9.47;100.00
43878;BME280;29815;48.184;11.268;2023-04-27T08:02:08;95727.47;;;9.56;100.00
43878;BME280;29815;48.184;11.268;2023-04-27T08:04:48;95736.19;;;9.73;100.00
43878;BME280;29815;48.184;11.268;2023-04-27T08:07:19;95734.91;;;9.85;100.00
43878;BME280;29815;48.184;11.268;2023-04-27T08:09:50;95737.69;;;10.01;100.00
43878;BME280;29815;48.184;11.268;2023-04-27T08:12:20;95740.13;;;10.12;100.00
43878;BME280;29815;48.184;11.268;2023-04-27T08:14:49;95742.91;;;10.23;100.00
43878;BME280;29815;48.184;11.268;2023-04-27T08:17:19;95744.59;;;10.34;100.00
43878;BME280;29815;48.184;11.268;2023-04-27T08:19:50;95746.75;;;10.42;100.00
43878;BME280;29815;48.184;11.268;2023-04-27T08:22:20;95734.66;;;10.49;100.00
43878;BME280;29815;48.184;11.268;2023-04-27T08:24:50;95734.44;;;10.61;100.00
43878;BME280;29815;48.184;11.268;2023-04-27T08:27:19;95744.69;;;10.69;100.00
43878;BME280;29815;48.184;11.268;2023-04-27T08:29:49;95729.34;;;10.65;100.00
43878;BME280;29815;48.184;11.268;2023-04-27T08:32:18;95741.19;;;10.74;100.00
43878;BME280;29815;48.184;11.268;2023-04-27T08:34:49;95738.47;;;10.69;100.00
43878;BME280;29815;48.184;11.268;2023-04-27T08:37:19;95741.22;;;10.79;100.00
43878;BME280;29815;48.184;11.268;2023-04-27T08:39:48;95734.75;;;10.85;100.00
43878;BME280;29815;48.184;11.268;2023-04-27T08:42:18;95742.31;;;10.93;100.00
43878;BME280;29815;48.184;11.268;2023-04-27T08:44:48;95738.00;;;11.02;100.00
43878;BME280;29815;48.184;11.268;2023-04-27T08:47:17;95730.50;;;11.14;100.00
43878;BME280;29815;48.184;11.268;2023-04-27T08:50:04;95734.25;;;11.34;100.00
43878;BME280;29815;48.184;11.268;2023-04-27T08:52:36;95728.56;;;11.50;100.00
43878;BME280;29815;48.184;11.268;2023-04-27T08:55:07;95727.22;;;11.63;100.00
43878;BME280;29815;48.184;11.268;2023-04-27T08:57:37;95717.25;;;11.64;100.00
43878;BME280;29815;48.184;11.268;2023-04-27T09:00:08;95722.66;;;11.59;100.00
43878;BME280;29815;48.184;11.268;2023-04-27T09:02:47;95727.50;;;11.72;100.00
43878;BME280;29815;48.184;11.268;2023-04-27T09:05:19;95725.06;;;11.85;100.00
43878;BME280;29815;48.184;11.268;2023-04-27T09:07:59;95728.81;;;11.90;100.00
43878;BME280;29815;48.184;11.268;2023-04-27T09:10:44;95735.50;;;12.07;100.00
43878;BME280;29815;48.184;11.268;2023-04-27T09:13:14;95725.78;;;12.16;100.00
43878;BME280;29815;48.184;11.268;2023-04-27T09:15:45;95725.19;;;12.30;100.00
43878;BME280;29815;48.184;11.268;2023-04-27T09:18:17;95715.66;;;12.47;100.00
43878;BME280;29815;48.184;11.268;2023-04-27T09:20:51;95719.47;;;12.41;100.00
43878;BME280;29815;48.184;11.268;2023-04-27T09:23:25;95709.22;;;12.38;100.00
43878;BME280;29815;48.184;11.268;2023-04-27T09:25:57;95710.56;;;12.36;100.00
43878;BME280;29815;48.184;11.268;2023-04-27T09:28:28;95718.16;;;12.34;100.00
43878;BME280;29815;48.184;11.268;2023-04-27T09:31:01;95715.69;;;12.42;100.00
43878;BME280;29815;48.184;11.268;2023-04-27T09:33:33;95716.66;;;12.62;100.00
43878;BME280;29815;48.184;11.268;2023-04-27T09:36:06;95706.13;;;12.60;93.54
43878;BME280;29815;48.184;11.268;2023-04-27T09:38:36;95709.88;;;12.69;100.00
43878;BME280;29815;48.184;11.268;2023-04-27T09:41:07;95708.78;;;12.70;93.74
43878;BME280;29815;48.184;11.268;2023-04-27T09:43:37;95704.47;;;12.69;91.37
43878;BME280;29815;48.184;11.268;2023-04-27T09:46:08;95700.59;;;12.85;95.76
43878;BME280;29815;48.184;11.268;2023-04-27T09:48:38;95698.59;;;13.01;95.70
43878;BME280;29815;48.184;11.268;2023-04-27T09:51:10;95687.09;;;13.25;84.17
43878;BME280;29815;48.184;11.268;2023-04-27T09:53:45;95675.84;;;13.41;82.60
43878;BME280;29815;48.184;11.268;2023-04-27T09:56:27;95678.72;;;13.55;74.35
43878;BME280;29815;48.184;11.268;2023-04-27T09:59:34;95675.72;;;13.57;78.22
43878;BME280;29815;48.184;11.268;2023-04-27T10:02:14;95664.72;;;13.72;78.75
43878;BME280;29815;48.184;11.268;2023-04-27T10:05:25;95675.94;;;13.89;80.02
43878;BME280;29815;48.184;11.268;2023-04-27T10:08:01;95676.16;;;13.93;74.94
43878;BME280;29815;48.184;11.268;2023-04-27T10:10:41;95679.69;;;13.93;70.81
43878;BME280;29815;48.184;11.268;2023-04-27T10:13:20;95672.81;;;13.77;71.20
43878;BME280;29815;48.184;11.268;2023-04-27T10:15:51;95669.34;;;13.71;71.10
43878;BME280;29815;48.184;11.268;2023-04-27T10:18:29;95664.72;;;13.72;72.00
43878;BME280;29815;48.184;11.268;2023-04-27T10:21:09;95670.31;;;13.57;73.47
43878;BME280;29815;48.184;11.268;2023-04-27T10:23:48;95670.31;;;13.57;74.58
43878;BME280;29815;48.184;11.268;2023-04-27T10:26:22;95656.53;;;13.82;74.07
43878;BME280;29815;48.184;11.268;2023-04-27T10:28:56;95660.38;;;14.00;78.15
43878;BME280;29815;48.184;11.268;2023-04-27T10:31:26;95661.16;;;14.24;73.63
43878;BME280;29815;48.184;11.268;2023-04-27T10:34:08;95666.78;;;14.51;74.86
43878;BME280;29815;48.184;11.268;2023-04-27T10:36:39;95657.38;;;14.68;71.21
43878;BME280;29815;48.184;11.268;2023-04-27T10:39:19;95668.25;;;15.00;68.68
43878;BME280;29815;48.184;11.268;2023-04-27T10:42:07;95653.75;;;14.53;68.33
43878;BME280;29815;48.184;11.268;2023-04-27T10:44:38;95659.03;;;14.45;68.98
43878;BME280;29815;48.184;11.268;2023-04-27T10:47:13;95662.88;;;14.39;68.74
43878;BME280;29815;48.184;11.268;2023-04-27T10:49:44;95669.38;;;14.38;71.71
43878;BME280;29815;48.184;11.268;2023-04-27T10:52:13;95666.66;;;14.43;69.55
43878;BME280;29815;48.184;11.268;2023-04-27T10:54:46;95662.13;;;14.33;68.65
43878;BME280;29815;48.184;11.268;2023-04-27T10:57:15;95661.66;;;14.50;71.71
43878;BME280;29815;48.184;11.268;2023-04-27T10:59:50;95670.91;;;14.49;68.58
43878;BME280;29815;48.184;11.268;2023-04-27T11:02:26;95659.69;;;14.55;72.10
43878;BME280;29815;48.184;11.268;2023-04-27T11:04:56;95659.09;;;14.59;68.30
43878;BME280;29815;48.184;11.268;2023-04-27T11:07:27;95654.47;;;14.40;68.08
43878;BME280;29815;48.184;11.268;2023-04-27T11:09:58;95655.16;;;14.27;66.86
43878;BME280;29815;48.184;11.268;2023-04-27T11:12:31;95659.78;;;14.27;69.71
43878;BME280;29815;48.184;11.268;2023-04-27T11:15:00;95658.69;;;14.04;67.63
43878;BME280;29815;48.184;11.268;2023-04-27T11:17:31;95656.00;;;14.04;69.24
43878;BME280;29815;48.184;11.268;2023-04-27T11:20:01;95660.25;;;14.10;68.26
43878;BME280;29815;48.184;11.268;2023-04-27T11:22:32;95660.50;;;14.13;68.79
43878;BME280;29815;48.184;11.268;2023-04-27T11:25:03;95652.63;;;14.36;69.94
43878;BME280;29815;48.184;11.268;2023-04-27T11:27:37;95666.66;;;14.43;70.72
43878;BME280;29815;48.184;11.268;2023-04-27T11:30:18;95673.19;;;14.37;69.02
43878;BME280;29815;48.184;11.268;2023-04-27T11:32:49;95669.69;;;14.36;68.41
43878;BME280;29815;48.184;11.268;2023-04-27T11:35:32;95676.59;;;14.23;67.46
43878;BME280;29815;48.184;11.268;2023-04-27T11:38:02;95664.84;;;14.33;68.07
43878;BME280;29815;48.184;11.268;2023-04-27T11:40:32;95667.53;;;14.33;67.71
43878;BME280;29815;48.184;11.268;2023-04-27T11:43:04;95664.38;;;14.50;72.15
43878;BME280;29815;48.184;11.268;2023-04-27T11:45:33;95663.06;;;14.47;69.92
43878;BME280;29815;48.184;11.268;2023-04-27T11:48:04;95665.34;;;14.59;70.21
43878;BME280;29815;48.184;11.268;2023-04-27T11:50:34;95668.34;;;14.57;69.45
43878;BME280;29815;48.184;11.268;2023-04-27T11:53:04;95674.25;;;14.60;71.20
43878;BME280;29815;48.184;11.268;2023-04-27T11:55:36;95669.44;;;14.56;64.68
43878;BME280;29815;48.184;11.268;2023-04-27T11:58:13;95673.69;;;14.81;69.37
43878;BME280;29815;48.184;11.268;2023-04-27T12:00:43;95660.59;;;15.21;67.41
43878;BME280;29815;48.184;11.268;2023-04-27T12:03:14;95664.13;;;15.54;66.76
43878;BME280;29815;48.184;11.268;2023-04-27T12:05:48;95657.53;;;15.74;62.86
43878;BME280;29815;48.184;11.268;2023-04-27T12:08:17;95664.84;;;15.60;63.29
43878;BME280;29815;48.184;11.268;2023-04-27T12:10:49;95665.97;;;15.40;65.81
43878;BME280;29815;48.184;11.268;2023-04-27T12:13:19;95662.16;;;15.41;68.05
43878;BME280;29815;48.184;11.268;2023-04-27T12:15:48;95665.06;;;15.31;66.38
43878;BME280;29815;48.184;11.268;2023-04-27T12:18:18;95673.22;;;15.12;65.06
43878;BME280;29815;48.184;11.268;2023-04-27T12:20:47;95671.69;;;15.06;66.65
43878;BME280;29815;48.184;11.268;2023-04-27T12:23:17;95671.34;;;14.94;64.70
43878;BME280;29815;48.184;11.268;2023-04-27T12:25:48;95673.97;;;14.99;68.12
43878;BME280;29815;48.184;11.268;2023-04-27T12:28:17;95672.38;;;14.98;66.01
43878;BME280;29815;48.184;11.268;2023-04-27T12:30:47;95663.22;;;14.94;66.81
43878;BME280;29815;48.184;11.268;2023-04-27T12:33:17;95667.56;;;15.08;67.70
43878;BME280;29815;48.184;11.268;2023-04-27T12:35:46;95670.44;;;15.17;68.02
43878;BME280;29815;48.184;11.268;2023-04-27T12:38:15;95671.44;;;15.21;64.91
43878;BME280;29815;48.184;11.268;2023-04-27T12:40:45;95667.38;;;15.56;67.00
43878;BME280;29815;48.184;11.268;2023-04-27T12:43:16;95664.50;;;16.07;62.57
43878;BME280;29815;48.184;11.268;2023-04-27T12:45:46;95659.34;;;16.47;62.04
43878;BME280;29815;48.184;11.268;2023-04-27T12:48:15;95648.56;;;16.69;62.23
43878;BME280;29815;48.184;11.268;2023-04-27T12:50:45;95653.91;;;16.97;61.84
43878;BME280;29815;48.184;11.268;2023-04-27T12:53:14;95652.88;;;17.29;63.31
43878;BME280;29815;48.184;11.268;2023-04-27T12:55:44;95649.66;;;17.49;56.88
43878;BME280;29815;48.184;11.268;2023-04-27T12:58:15;95653.88;;;17.33;61.88
43878;BME280;29815;48.184;11.268;2023-04-27T13:00:45;95659.59;;;17.53;59.16
43878;BME280;29815;48.184;11.268;2023-04-27T13:03:14;95651.09;;;17.46;60.53
43878;BME280;29815;48.184;11.268;2023-04-27T13:05:44;95649.22;;;17.33;57.64
43878;BME280;29815;48.184;11.268;2023-04-27T13:08:13;95651.44;;;17.31;56.86